createdAt,value
2022-11-16T00:00:06.117Z,1008.74
2022-11-16T00:16:01.613Z,1008.54
2022-11-16T00:31:04.026Z,1008.47
2022-11-16T00:46:01.405Z,1008.23
2022-11-16T01:00:03.517Z,1007.89
2022-11-16T01:16:00.961Z,1007.72
2022-11-16T01:31:03.198Z,1007.52
2022-11-16T01:46:00.557Z,1007.42
2022-11-16T02:00:02.622Z,1007.42
2022-11-16T02:15:59.957Z,1007.25
2022-11-16T02:31:02.305Z,1006.95
2022-11-16T02:46:04.580Z,1006.57
2022-11-16T03:00:01.736Z,1006.37
2022-11-16T03:16:04.091Z,1006.2
2022-11-16T03:31:01.437Z,1006.07
2022-11-16T03:46:03.641Z,1005.9
2022-11-16T04:00:00.781Z,1005.66
2022-11-16T04:16:03.188Z,1005.49
2022-11-16T04:31:00.559Z,1005.49
2022-11-16T04:46:02.954Z,1005.29
2022-11-16T05:00:00.253Z,1005.08
2022-11-16T05:16:02.589Z,1005.02
2022-11-16T05:31:00.065Z,1004.98
2022-11-16T05:46:21.556Z,1004.85
2022-11-16T06:00:04.314Z,1004.68
2022-11-16T06:16:01.662Z,1004.61
2022-11-16T06:31:03.913Z,1004.58
2022-11-16T06:46:01.206Z,1004.47
2022-11-16T07:00:03.320Z,1004.44
2022-11-16T07:16:00.685Z,1004.44
2022-11-16T07:31:02.846Z,1004.51
2022-11-16T07:46:30.442Z,1004.61
2022-11-16T08:00:02.300Z,1004.54
2022-11-16T08:16:00.744Z,1004.54
2022-11-16T08:31:01.957Z,1004.51
2022-11-16T08:46:04.207Z,1004.44
2022-11-16T09:00:01.368Z,1004.47
2022-11-16T09:16:03.808Z,1004.54
2022-11-16T09:31:01.211Z,1004.47
2022-11-16T09:46:03.494Z,1004.37
2022-11-16T10:00:00.697Z,1004.24
2022-11-16T10:16:03.279Z,1004.07
2022-11-16T10:31:00.549Z,1003.8
2022-11-16T10:46:02.918Z,1003.7
2022-11-16T10:59:59.965Z,1003.56
2022-11-16T11:16:02.469Z,1003.42
2022-11-16T11:30:59.753Z,1003.29
2022-11-16T11:46:02.179Z,1003.32
2022-11-16T12:00:04.316Z,1003.39
2022-11-16T12:16:01.729Z,1003.49
2022-11-16T12:31:03.989Z,1003.49
2022-11-16T12:46:01.346Z,1003.56
2022-11-16T13:00:03.465Z,1003.53
2022-11-16T13:16:00.796Z,1003.59
2022-11-16T13:31:03.144Z,1003.49
2022-11-16T13:46:00.506Z,1003.49
2022-11-16T14:00:02.681Z,1003.53
2022-11-16T14:16:00.083Z,1003.46
2022-11-16T14:31:02.313Z,1003.42
2022-11-16T14:45:59.701Z,1003.12
2022-11-16T15:00:01.871Z,1002.95
2022-11-16T15:16:04.556Z,1003.12
2022-11-16T15:31:02.058Z,1003.12
2022-11-16T15:46:04.449Z,1002.88
2022-11-16T16:00:14.064Z,1002.78
2022-11-16T16:16:03.926Z,1002.81
2022-11-16T16:31:23.624Z,1002.92
2022-11-16T16:46:03.470Z,1003.15
2022-11-16T17:00:00.564Z,1003.22
2022-11-16T17:16:02.953Z,1003.22
2022-11-16T17:31:00.247Z,1003.22
2022-11-16T17:46:02.448Z,1003.19
2022-11-16T18:00:04.582Z,1003.22
2022-11-16T18:16:02.106Z,1003.25
2022-11-16T18:31:04.563Z,1003.36
2022-11-16T18:46:01.823Z,1003.05
2022-11-16T19:00:03.945Z,1003.09
2022-11-16T19:16:01.289Z,1002.95
2022-11-16T19:31:03.639Z,1002.78
2022-11-16T19:46:00.836Z,1002.81
2022-11-16T20:00:03.114Z,1003.09
2022-11-16T20:16:00.626Z,1003.05
2022-11-16T20:31:03.024Z,1002.98
2022-11-16T20:46:00.225Z,1002.95
2022-11-16T21:00:02.288Z,1002.88
2022-11-16T21:15:59.923Z,1003.02
2022-11-16T21:31:01.880Z,1003.12
2022-11-16T21:46:04.151Z,1003.09
2022-11-16T22:00:01.380Z,1003.09
2022-11-16T22:16:03.746Z,1003.22
2022-11-16T22:31:03.267Z,1003.29
2022-11-16T22:46:03.273Z,1003.29
2022-11-16T23:00:00.333Z,1003.66
2022-11-16T23:16:02.757Z,1003.59
2022-11-16T23:31:00.188Z,1003.56
2022-11-16T23:46:02.546Z,1003.49
2022-11-16T23:59:59.708Z,1003.39
